Time;durP1;ratioP1;P1;durP2;ratioP2;P2;SDS_P1;SDS_P2;PMS_P1;PMS_P2;Temp;Humidity;BMP_temperature;BMP_pressure;BME280_temperature;BME280_humidity;BME280_pressure;Samples;Min_cycle;Max_cycle;Signal;HPM_P1;HPM_P2
2022/09/09 00:00:18;;;;;;;0.05;0.05;;;;;;;;;;6223260;22;20341;-86
2022/09/09 00:02:54;;;;;;;0.20;0.20;;;;;;;;;;6248565;22;20012;-85
2022/09/09 00:05:26;;;;;;;0.10;0.10;;;;;;;;;;6223801;22;20018;-86
2022/09/09 00:07:53;;;;;;;0.10;0.10;;;;;;;;;;6224077;22;20012;-85
2022/09/09 00:10:31;;;;;;;0.10;0.10;;;;;;;;;;6222897;22;20015;-86
2022/09/09 00:13:15;;;;;;;0.10;0.10;;;;;;;;;;6223762;22;20066;-86
2022/09/09 00:16:02;;;;;;;0.10;0.10;;;;;;;;;;6223961;22;20011;-86
2022/09/09 00:18:47;;;;;;;0.10;0.10;;;;;;;;;;6248971;22;20012;-85
2022/09/09 00:21:17;;;;;;;0.22;0.22;;;;;;;;;;6223955;22;20020;-86
2022/09/09 00:23:51;;;;;;;0.00;0.00;;;;;;;;;;6223702;22;20019;-86
2022/09/09 00:26:36;;;;;;;0.15;0.15;;;;;;;;;;6223804;22;20015;-86
2022/09/09 00:29:02;;;;;;;0.10;0.10;;;;;;;;;;6223324;22;20098;-86
2022/09/09 00:31:29;;;;;;;0.10;0.10;;;;;;;;;;6223646;22;20059;-85
2022/09/09 00:33:59;;;;;;;0.10;0.10;;;;;;;;;;6223819;22;20345;-86
2022/09/09 00:36:28;;;;;;;0.13;0.13;;;;;;;;;;6223575;22;20023;-86
2022/09/09 00:38:58;;;;;;;0.10;0.10;;;;;;;;;;6223136;22;20022;-85
2022/09/09 00:41:37;;;;;;;0.10;0.10;;;;;;;;;;6223794;22;20341;-86
2022/09/09 00:44:11;;;;;;;0.10;0.10;;;;;;;;;;6223697;22;20395;-85
2022/09/09 00:46:55;;;;;;;0.10;0.10;;;;;;;;;;6223661;22;20073;-86
2022/09/09 00:49:40;;;;;;;0.15;0.15;;;;;;;;;;6223088;22;20016;-85
2022/09/09 00:52:22;;;;;;;0.10;0.10;;;;;;;;;;6223464;22;20022;-85
2022/09/09 00:54:51;;;;;;;0.10;0.10;;;;;;;;;;6223714;22;20334;-85
2022/09/09 00:57:28;;;;;;;0.10;0.10;;;;;;;;;;6223650;22;20011;-85
2022/09/09 00:59:55;;;;;;;0.10;0.10;;;;;;;;;;6223261;22;20016;-85
2022/09/09 01:02:47;;;;;;;0.10;0.10;;;;;;;;;;6223653;22;20347;-85
2022/09/09 01:05:19;;;;;;;0.10;0.10;;;;;;;;;;6248747;22;20064;-85
2022/09/09 01:07:48;;;;;;;0.15;0.15;;;;;;;;;;6223672;22;20079;-85
2022/09/09 01:10:34;;;;;;;0.10;0.10;;;;;;;;;;6222691;22;20015;-85
2022/09/09 01:13:03;;;;;;;0.10;0.10;;;;;;;;;;6223619;22;20421;-85
2022/09/09 01:15:30;;;;;;;0.20;0.20;;;;;;;;;;6250660;22;20022;-85
2022/09/09 01:18:01;;;;;;;0.10;0.10;;;;;;;;;;6225173;22;20341;-85
2022/09/09 01:20:47;;;;;;;0.10;0.10;;;;;;;;;;6224797;22;20054;-85
2022/09/09 01:23:31;;;;;;;0.10;0.10;;;;;;;;;;6209438;22;20066;-85
2022/09/09 01:26:09;;;;;;;0.05;0.05;;;;;;;;;;6250528;22;20072;-85
2022/09/09 01:28:36;;;;;;;0.10;0.10;;;;;;;;;;6225396;22;20016;-85
2022/09/09 01:31:03;;;;;;;0.10;0.10;;;;;;;;;;6224661;22;20349;-85
2022/09/09 01:33:30;;;;;;;0.10;0.10;;;;;;;;;;6225219;22;20453;-85
2022/09/09 01:35:58;;;;;;;0.20;0.20;;;;;;;;;;6225099;22;20022;-86
2022/09/09 01:38:24;;;;;;;0.10;0.10;;;;;;;;;;6225357;22;20446;-86
2022/09/09 01:40:52;;;;;;;0.10;0.10;;;;;;;;;;6224429;22;20467;-85
2022/09/09 01:43:19;;;;;;;0.10;0.10;;;;;;;;;;6225160;22;20697;-85
2022/09/09 01:45:47;;;;;;;0.10;0.10;;;;;;;;;;6250523;22;20016;-85
2022/09/09 01:48:13;;;;;;;0.10;0.10;;;;;;;;;;6224908;22;20023;-86
2022/09/09 01:50:39;;;;;;;0.20;0.20;;;;;;;;;;6224452;22;20023;-85
2022/09/09 01:53:05;;;;;;;0.10;0.10;;;;;;;;;;6225057;22;20024;-86
2022/09/09 01:55:31;;;;;;;0.10;0.10;;;;;;;;;;6224944;22;20377;-85
2022/09/09 01:58:12;;;;;;;0.05;0.05;;;;;;;;;;6225055;22;20070;-86
2022/09/09 02:00:43;;;;;;;0.10;0.10;;;;;;;;;;6224430;22;20008;-85
2022/09/09 02:03:09;;;;;;;0.00;0.00;;;;;;;;;;6224879;22;20407;-85
2022/09/09 02:05:42;;;;;;;0.10;0.10;;;;;;;;;;6224392;22;20050;-85
2022/09/09 02:08:09;;;;;;;0.10;0.10;;;;;;;;;;6223351;22;20017;-85
2022/09/09 02:10:43;;;;;;;0.10;0.10;;;;;;;;;;6222521;22;20011;-85
2022/09/09 02:13:18;;;;;;;0.10;0.10;;;;;;;;;;6223255;22;20015;-85
2022/09/09 02:15:47;;;;;;;0.00;0.00;;;;;;;;;;6223219;22;20057;-85
2022/09/09 02:18:14;;;;;;;0.20;0.20;;;;;;;;;;6223411;22;20337;-85
2022/09/09 02:20:41;;;;;;;0.10;0.10;;;;;;;;;;6222571;22;20022;-85
2022/09/09 02:23:09;;;;;;;0.10;0.10;;;;;;;;;;6223285;22;20019;-85
2022/09/09 02:25:37;;;;;;;0.17;0.17;;;;;;;;;;6222459;22;20365;-85
2022/09/09 02:28:05;;;;;;;0.10;0.10;;;;;;;;;;6222941;22;20027;-85
2022/09/09 02:30:31;;;;;;;0.10;0.10;;;;;;;;;;6222631;22;20065;-85
2022/09/09 02:32:58;;;;;;;0.10;0.10;;;;;;;;;;6223043;22;20027;-84
2022/09/09 02:35:26;;;;;;;0.10;0.10;;;;;;;;;;6248543;22;20346;-85
2022/09/09 02:37:53;;;;;;;0.10;0.10;;;;;;;;;;6223145;22;20095;-85
2022/09/09 02:40:20;;;;;;;0.10;0.10;;;;;;;;;;6247692;22;20020;-84
2022/09/09 02:42:47;;;;;;;0.00;0.00;;;;;;;;;;6223388;22;20015;-84
2022/09/09 02:45:16;;;;;;;0.10;0.10;;;;;;;;;;6223039;22;20051;-84
2022/09/09 02:47:42;;;;;;;0.10;0.10;;;;;;;;;;6248416;22;20023;-84
2022/09/09 02:50:12;;;;;;;0.10;0.10;;;;;;;;;;6247794;22;20022;-84
2022/09/09 02:53:00;;;;;;;0.10;0.10;;;;;;;;;;6223151;22;20113;-84
2022/09/09 02:55:36;;;;;;;0.10;0.10;;;;;;;;;;6223107;22;20509;-85
2022/09/09 02:58:05;;;;;;;0.10;0.10;;;;;;;;;;6248400;22;20043;-84
2022/09/09 03:00:32;;;;;;;0.10;0.10;;;;;;;;;;6247899;22;20043;-84
2022/09/09 03:02:59;;;;;;;0.05;0.05;;;;;;;;;;6222977;22;20054;-84
2022/09/09 03:05:26;;;;;;;0.10;0.10;;;;;;;;;;6165264;22;1335178;-85
2022/09/09 03:07:52;;;;;;;0.10;0.10;;;;;;;;;;6249882;22;20391;-84
2022/09/09 03:10:18;;;;;;;0.10;0.10;;;;;;;;;;6223538;22;20012;-84
2022/09/09 03:12:44;;;;;;;0.10;0.10;;;;;;;;;;6224242;22;20044;-85
2022/09/09 03:15:10;;;;;;;0.10;0.10;;;;;;;;;;6224325;22;20012;-84
2022/09/09 03:17:37;;;;;;;0.20;0.20;;;;;;;;;;6224331;22;20019;-84
2022/09/09 03:20:04;;;;;;;0.10;0.10;;;;;;;;;;6223618;22;20334;-84
2022/09/09 03:22:30;;;;;;;0.15;0.15;;;;;;;;;;6224038;22;20047;-85
2022/09/09 03:24:56;;;;;;;0.10;0.10;;;;;;;;;;6224226;22;20449;-85
2022/09/09 03:27:22;;;;;;;0.15;0.15;;;;;;;;;;6223905;22;20091;-84
2022/09/09 03:29:51;;;;;;;0.10;0.10;;;;;;;;;;6248891;22;20357;-84
2022/09/09 03:32:17;;;;;;;0.17;0.17;;;;;;;;;;6223878;22;20051;-84
2022/09/09 03:34:43;;;;;;;0.10;0.10;;;;;;;;;;6249362;22;20041;-85
2022/09/09 03:37:09;;;;;;;0.10;0.10;;;;;;;;;;6223842;22;20016;-85
2022/09/09 03:39:35;;;;;;;0.10;0.10;;;;;;;;;;6223474;22;20016;-85
2022/09/09 03:42:05;;;;;;;0.10;0.10;;;;;;;;;;6223923;22;20055;-84
2022/09/09 03:44:31;;;;;;;0.10;0.10;;;;;;;;;;6224229;22;20016;-85
2022/09/09 03:47:00;;;;;;;0.10;0.10;;;;;;;;;;6224000;22;20016;-84
2022/09/09 03:49:28;;;;;;;0.10;0.10;;;;;;;;;;6223454;22;20517;-84
2022/09/09 03:51:54;;;;;;;0.08;0.08;;;;;;;;;;6223864;22;20016;-84
2022/09/09 03:54:20;;;;;;;0.10;0.10;;;;;;;;;;6223884;22;20047;-84
2022/09/09 03:56:46;;;;;;;0.10;0.10;;;;;;;;;;6223885;22;20027;-85
2022/09/09 03:59:14;;;;;;;0.10;0.10;;;;;;;;;;6223181;22;20012;-85
2022/09/09 04:01:40;;;;;;;0.10;0.10;;;;;;;;;;6248646;22;20049;-84
2022/09/09 04:04:06;;;;;;;0.20;0.20;;;;;;;;;;6246612;22;20098;-84
2022/09/09 04:06:32;;;;;;;0.10;0.10;;;;;;;;;;6248165;22;20069;-84
2022/09/09 04:08:58;;;;;;;0.00;0.00;;;;;;;;;;6222658;22;20016;-84
2022/09/09 04:11:24;;;;;;;0.10;0.10;;;;;;;;;;6222706;22;20016;-84
2022/09/09 04:13:50;;;;;;;0.10;0.10;;;;;;;;;;6223082;22;20504;-85
2022/09/09 04:16:16;;;;;;;0.15;0.15;;;;;;;;;;6223072;22;20047;-85
2022/09/09 04:18:42;;;;;;;0.10;0.10;;;;;;;;;;6222856;22;20395;-85
2022/09/09 04:21:09;;;;;;;0.15;0.15;;;;;;;;;;6222587;22;20015;-85
2022/09/09 04:23:36;;;;;;;0.10;0.10;;;;;;;;;;6222771;22;20081;-85
2022/09/09 04:26:03;;;;;;;0.10;0.10;;;;;;;;;;6222684;22;20018;-84
2022/09/09 04:28:30;;;;;;;0.10;0.10;;;;;;;;;;6222713;22;20016;-84
2022/09/09 04:30:56;;;;;;;0.10;0.10;;;;;;;;;;6247502;22;20055;-84
2022/09/09 04:33:26;;;;;;;0.10;0.10;;;;;;;;;;6222978;22;20011;-84
2022/09/09 04:35:53;;;;;;;0.10;0.10;;;;;;;;;;6223055;22;20057;-85
2022/09/09 04:38:19;;;;;;;0.10;0.10;;;;;;;;;;6222929;22;20012;-85
2022/09/09 04:40:48;;;;;;;0.10;0.10;;;;;;;;;;6221955;22;20094;-85
2022/09/09 04:43:15;;;;;;;0.10;0.10;;;;;;;;;;6222880;22;20016;-84
2022/09/09 04:45:47;;;;;;;0.10;0.10;;;;;;;;;;6248146;22;20019;-84
2022/09/09 04:48:13;;;;;;;0.10;0.10;;;;;;;;;;6223458;22;20019;-85
2022/09/09 04:50:40;;;;;;;0.20;0.20;;;;;;;;;;6224182;22;20019;-84
2022/09/09 04:53:06;;;;;;;0.20;0.20;;;;;;;;;;6224736;22;20051;-85
2022/09/09 04:55:33;;;;;;;0.10;0.10;;;;;;;;;;6249873;22;20357;-85
2022/09/09 04:58:04;;;;;;;0.20;0.20;;;;;;;;;;6224664;22;20065;-84
2022/09/09 05:00:30;;;;;;;0.25;0.25;;;;;;;;;;6224121;22;20122;-84
2022/09/09 05:02:55;;;;;;;0.10;0.10;;;;;;;;;;6224684;22;20055;-84
2022/09/09 05:05:22;;;;;;;0.10;0.10;;;;;;;;;;6249927;22;20575;-84
2022/09/09 05:07:49;;;;;;;0.10;0.10;;;;;;;;;;6224657;22;20022;-85
2022/09/09 05:10:16;;;;;;;0.15;0.15;;;;;;;;;;6223785;22;20016;-84
2022/09/09 05:12:42;;;;;;;0.20;0.20;;;;;;;;;;6224457;22;20171;-84
2022/09/09 05:15:09;;;;;;;0.17;0.17;;;;;;;;;;6224482;22;20018;-85
2022/09/09 05:17:35;;;;;;;0.20;0.20;;;;;;;;;;6224384;22;20340;-85
2022/09/09 05:20:03;;;;;;;0.10;0.10;;;;;;;;;;6224081;22;20012;-85
2022/09/09 05:22:30;;;;;;;0.10;0.10;;;;;;;;;;6224028;22;20011;-84
2022/09/09 05:24:56;;;;;;;0.10;0.10;;;;;;;;;;6224373;22;20019;-84
2022/09/09 05:27:22;;;;;;;0.05;0.05;;;;;;;;;;6224156;22;20019;-84
2022/09/09 05:29:48;;;;;;;0.20;0.20;;;;;;;;;;6223800;22;20050;-85
2022/09/09 05:32:16;;;;;;;0.10;0.10;;;;;;;;;;6224379;22;20091;-85
2022/09/09 05:34:42;;;;;;;0.10;0.10;;;;;;;;;;6224377;22;20015;-84
2022/09/09 05:37:07;;;;;;;0.20;0.20;;;;;;;;;;6249770;22;20046;-85
2022/09/09 05:39:36;;;;;;;0.10;0.10;;;;;;;;;;6223571;22;20015;-84
2022/09/09 05:42:04;;;;;;;0.10;0.10;;;;;;;;;;6224060;22;20022;-85
2022/09/09 05:44:30;;;;;;;0.20;0.20;;;;;;;;;;6224137;22;20042;-85
2022/09/09 05:46:57;;;;;;;0.20;0.20;;;;;;;;;;6224176;22;20023;-85
2022/09/09 05:49:23;;;;;;;0.10;0.10;;;;;;;;;;6223384;22;20015;-84
2022/09/09 05:51:50;;;;;;;0.10;0.10;;;;;;;;;;6249547;22;20095;-84
2022/09/09 05:54:16;;;;;;;0.20;0.20;;;;;;;;;;6224097;22;20016;-85
2022/09/09 05:56:42;;;;;;;0.00;0.00;;;;;;;;;;6223926;22;20090;-85
2022/09/09 05:59:09;;;;;;;0.10;0.10;;;;;;;;;;6223492;22;20070;-85
2022/09/09 06:01:36;;;;;;;0.10;0.10;;;;;;;;;;6224141;22;20047;-85
2022/09/09 06:04:03;;;;;;;0.10;0.10;;;;;;;;;;6249341;22;20023;-85
2022/09/09 06:06:36;;;;;;;0.20;0.20;;;;;;;;;;6223748;22;20437;-85
2022/09/09 06:09:03;;;;;;;0.10;0.10;;;;;;;;;;6223619;22;20098;-84
2022/09/09 06:11:30;;;;;;;0.10;0.10;;;;;;;;;;6223551;22;20020;-84
2022/09/09 06:13:57;;;;;;;0.10;0.10;;;;;;;;;;6249297;22;20094;-85
2022/09/09 06:16:24;;;;;;;0.10;0.10;;;;;;;;;;6223846;22;20099;-85
2022/09/09 06:18:50;;;;;;;0.10;0.10;;;;;;;;;;6223510;22;20094;-85
2022/09/09 06:21:20;;;;;;;0.10;0.10;;;;;;;;;;6249140;22;20024;-85
2022/09/09 06:23:51;;;;;;;0.10;0.10;;;;;;;;;;6249287;22;20024;-85
2022/09/09 06:26:18;;;;;;;0.10;0.10;;;;;;;;;;6223802;22;20016;-84
2022/09/09 06:28:45;;;;;;;0.10;0.10;;;;;;;;;;6223710;22;20023;-85
2022/09/09 06:31:12;;;;;;;0.20;0.20;;;;;;;;;;6223810;22;20042;-85
2022/09/09 06:33:40;;;;;;;0.10;0.10;;;;;;;;;;6223600;22;20065;-85
2022/09/09 06:36:07;;;;;;;0.10;0.10;;;;;;;;;;6223793;22;20026;-84
2022/09/09 06:38:33;;;;;;;0.13;0.13;;;;;;;;;;6223530;22;20038;-85
2022/09/09 06:41:01;;;;;;;0.10;0.10;;;;;;;;;;6223101;22;20016;-85
2022/09/09 06:43:27;;;;;;;0.10;0.10;;;;;;;;;;6223651;22;20015;-85
2022/09/09 06:46:00;;;;;;;0.28;0.28;;;;;;;;;;6223740;22;20016;-85
2022/09/09 06:48:27;;;;;;;0.10;0.10;;;;;;;;;;6223627;22;20115;-85
2022/09/09 06:51:07;;;;;;;0.00;0.00;;;;;;;;;;6223024;22;20103;-84
2022/09/09 06:53:34;;;;;;;0.10;0.10;;;;;;;;;;6223507;22;20015;-85
2022/09/09 06:56:21;;;;;;;0.10;0.10;;;;;;;;;;6223232;22;20011;-85
2022/09/09 06:58:48;;;;;;;0.10;0.10;;;;;;;;;;6248126;22;20014;-85
2022/09/09 07:01:21;;;;;;;0.10;0.10;;;;;;;;;;6223644;22;20042;-85
2022/09/09 07:03:48;;;;;;;0.10;0.10;;;;;;;;;;6223519;22;20416;-85
2022/09/09 07:06:17;;;;;;;0.10;0.10;;;;;;;;;;6223127;22;20018;-85
2022/09/09 07:08:43;;;;;;;0.20;0.20;;;;;;;;;;6223460;22;20016;-85
2022/09/09 07:11:10;;;;;;;0.10;0.10;;;;;;;;;;6222518;22;20062;-85
2022/09/09 07:13:36;;;;;;;0.20;0.20;;;;;;;;;;6223514;22;20042;-85
2022/09/09 07:16:09;;;;;;;0.10;0.10;;;;;;;;;;6248599;22;20016;-85
2022/09/09 07:18:35;;;;;;;0.10;0.10;;;;;;;;;;6223322;22;20012;-85
2022/09/09 07:21:01;;;;;;;0.20;0.20;;;;;;;;;;6222962;22;20051;-85
2022/09/09 07:23:28;;;;;;;0.20;0.20;;;;;;;;;;6223168;22;20023;-86
2022/09/09 07:25:54;;;;;;;0.10;0.10;;;;;;;;;;6223296;22;20061;-85
2022/09/09 07:28:21;;;;;;;0.13;0.13;;;;;;;;;;6223166;22;20026;-86
2022/09/09 07:30:56;;;;;;;0.20;0.20;;;;;;;;;;6275304;22;20016;-86
2022/09/09 07:33:23;;;;;;;0.20;0.20;;;;;;;;;;6223479;22;20012;-86
2022/09/09 07:35:50;;;;;;;0.10;0.10;;;;;;;;;;6223415;22;20057;-86
2022/09/09 07:38:16;;;;;;;0.17;0.17;;;;;;;;;;6223061;22;20022;-86
2022/09/09 07:40:43;;;;;;;0.20;0.20;;;;;;;;;;6222711;22;20015;-86
2022/09/09 07:43:09;;;;;;;0.10;0.10;;;;;;;;;;6223358;22;20016;-86
2022/09/09 07:45:35;;;;;;;0.10;0.10;;;;;;;;;;6223041;22;20094;-86
2022/09/09 07:48:02;;;;;;;0.20;0.20;;;;;;;;;;6223383;22;20019;-86
2022/09/09 07:50:28;;;;;;;0.10;0.10;;;;;;;;;;6222475;22;20020;-86
2022/09/09 07:52:54;;;;;;;0.10;0.10;;;;;;;;;;6223255;22;20102;-86
2022/09/09 07:55:21;;;;;;;0.10;0.10;;;;;;;;;;6223189;22;20043;-86
2022/09/09 07:57:47;;;;;;;0.10;0.10;;;;;;;;;;6223033;22;20449;-86
2022/09/09 08:00:14;;;;;;;0.10;0.10;;;;;;;;;;6222558;22;20047;-86
2022/09/09 08:02:53;;;;;;;0.10;0.10;;;;;;;;;;6223308;22;20012;-86
2022/09/09 08:05:20;;;;;;;0.10;0.10;;;;;;;;;;6222896;22;20090;-86
2022/09/09 08:07:46;;;;;;;0.15;0.15;;;;;;;;;;6223381;22;20547;-86
2022/09/09 08:10:14;;;;;;;0.10;0.10;;;;;;;;;;6247563;22;20016;-86
2022/09/09 08:12:40;;;;;;;0.20;0.20;;;;;;;;;;6223034;22;20012;-86
2022/09/09 08:15:06;;;;;;;0.13;0.13;;;;;;;;;;6222966;22;20016;-86
2022/09/09 08:17:32;;;;;;;0.10;0.10;;;;;;;;;;6223156;22;20016;-86
2022/09/09 08:20:03;;;;;;;0.10;0.10;;;;;;;;;;6222478;22;20094;-86
2022/09/09 08:22:29;;;;;;;0.03;0.03;;;;;;;;;;6223021;22;20019;-86
2022/09/09 08:24:55;;;;;;;0.20;0.20;;;;;;;;;;6225089;22;20024;-86
2022/09/09 08:27:22;;;;;;;0.00;0.00;;;;;;;;;;6224880;22;20022;-86
2022/09/09 08:29:48;;;;;;;0.10;0.10;;;;;;;;;;6224759;22;20028;-86
2022/09/09 08:32:14;;;;;;;0.10;0.10;;;;;;;;;;6224790;22;20403;-86
2022/09/09 08:34:41;;;;;;;0.10;0.10;;;;;;;;;;6225051;22;20015;-86
2022/09/09 08:37:07;;;;;;;0.10;0.10;;;;;;;;;;6224937;22;20019;-86
2022/09/09 08:39:33;;;;;;;0.10;0.10;;;;;;;;;;6224357;22;20011;-86
2022/09/09 08:42:02;;;;;;;0.05;0.05;;;;;;;;;;6225765;22;20450;-91
2022/09/09 08:44:36;;;;;;;0.10;0.10;;;;;;;;;;6222803;22;20059;-91
2022/09/09 08:47:12;;;;;;;0.15;0.15;;;;;;;;;;6226241;22;20024;-92
2022/09/09 08:49:57;;;;;;;0.00;0.00;;;;;;;;;;6225344;22;20360;-92
2022/09/09 08:52:28;;;;;;;0.00;0.00;;;;;;;;;;6250752;22;20069;-91
2022/09/09 08:55:02;;;;;;;0.10;0.10;;;;;;;;;;6225741;22;20012;-92
2022/09/09 08:57:30;;;;;;;0.13;0.13;;;;;;;;;;6225728;22;20022;-92
2022/09/09 08:59:57;;;;;;;0.20;0.20;;;;;;;;;;6225624;22;20023;-91
2022/09/09 09:02:23;;;;;;;0.10;0.10;;;;;;;;;;6225977;22;20020;-90
2022/09/09 09:05:09;;;;;;;0.17;0.17;;;;;;;;;;6226726;22;20024;-91
2022/09/09 09:07:54;;;;;;;0.10;0.10;;;;;;;;;;6225853;22;20103;-91
2022/09/09 09:10:30;;;;;;;0.00;0.00;;;;;;;;;;6225180;22;20016;-90
2022/09/09 09:12:56;;;;;;;0.10;0.10;;;;;;;;;;6226033;22;20019;-90
2022/09/09 09:15:41;;;;;;;0.10;0.10;;;;;;;;;;6225537;22;20340;-90
2022/09/09 09:18:12;;;;;;;0.10;0.10;;;;;;;;;;6225570;22;20016;-89
2022/09/09 09:20:43;;;;;;;0.20;0.20;;;;;;;;;;6225274;22;20348;-90
2022/09/09 09:23:15;;;;;;;0.10;0.10;;;;;;;;;;6225436;22;20023;-90
2022/09/09 09:26:00;;;;;;;0.10;0.10;;;;;;;;;;6251358;22;20019;-90
2022/09/09 09:28:29;;;;;;;0.05;0.05;;;;;;;;;;6225945;22;20049;-91
2022/09/09 09:31:02;;;;;;;0.10;0.10;;;;;;;;;;6225284;22;20019;-91
2022/09/09 09:33:32;;;;;;;0.00;0.00;;;;;;;;;;6225282;22;20102;-91
2022/09/09 09:35:59;;;;;;;0.00;0.00;;;;;;;;;;6225512;22;20327;-90
2022/09/09 09:38:27;;;;;;;0.10;0.10;;;;;;;;;;6225433;22;20015;-90
2022/09/09 09:40:58;;;;;;;0.10;0.10;;;;;;;;;;6224834;22;20022;-90
2022/09/09 09:43:27;;;;;;;0.10;0.10;;;;;;;;;;6225421;22;20291;-90
2022/09/09 09:45:53;;;;;;;0.10;0.10;;;;;;;;;;6225738;22;20173;-89
2022/09/09 09:48:19;;;;;;;0.10;0.10;;;;;;;;;;6225444;22;20023;-90
2022/09/09 09:50:57;;;;;;;0.10;0.10;;;;;;;;;;6224823;22;20016;-91
2022/09/09 09:53:23;;;;;;;0.10;0.10;;;;;;;;;;6225173;22;20023;-90
2022/09/09 09:55:54;;;;;;;0.10;0.10;;;;;;;;;;6225087;22;20014;-89
2022/09/09 09:58:21;;;;;;;0.20;0.20;;;;;;;;;;6225332;22;20445;-90
2022/09/09 10:00:51;;;;;;;0.10;0.10;;;;;;;;;;6224611;22;20023;-89
2022/09/09 10:03:30;;;;;;;0.10;0.10;;;;;;;;;;6224800;22;20026;-91
2022/09/09 10:05:57;;;;;;;0.10;0.10;;;;;;;;;;6224678;22;20027;-89
2022/09/09 10:08:27;;;;;;;0.10;0.10;;;;;;;;;;6225027;22;20027;-89
2022/09/09 10:11:05;;;;;;;0.10;0.10;;;;;;;;;;6224320;22;20016;-90
2022/09/09 10:13:37;;;;;;;0.10;0.10;;;;;;;;;;6225155;22;20015;-90
2022/09/09 10:16:07;;;;;;;0.10;0.10;;;;;;;;;;6224960;22;20046;-90
2022/09/09 10:18:45;;;;;;;0.10;0.10;;;;;;;;;;6224923;22;20051;-89
2022/09/09 10:21:27;;;;;;;0.20;0.20;;;;;;;;;;6224857;22;20102;-89
2022/09/09 10:24:09;;;;;;;0.10;0.10;;;;;;;;;;6225294;22;20463;-89
2022/09/09 10:26:50;;;;;;;0.10;0.10;;;;;;;;;;6225409;22;20349;-89
2022/09/09 10:29:38;;;;;;;0.10;0.10;;;;;;;;;;6224064;22;20480;-90
2022/09/09 10:32:23;;;;;;;0.17;0.17;;;;;;;;;;6250361;22;20026;-89
2022/09/09 10:34:52;;;;;;;0.10;0.10;;;;;;;;;;6224864;22;20026;-89
2022/09/09 10:37:30;;;;;;;0.03;0.03;;;;;;;;;;6224901;22;20018;-89
2022/09/09 10:40:02;;;;;;;0.05;0.05;;;;;;;;;;6224695;22;20107;-90
2022/09/09 10:42:32;;;;;;;0.10;0.10;;;;;;;;;;6224841;22;20016;-91
2022/09/09 10:45:04;;;;;;;0.10;0.10;;;;;;;;;;6224857;22;20094;-89
2022/09/09 10:47:44;;;;;;;0.00;0.00;;;;;;;;;;6224585;22;20020;-90
2022/09/09 10:50:13;;;;;;;0.03;0.03;;;;;;;;;;6224267;22;20327;-92
2022/09/09 10:52:43;;;;;;;0.10;0.10;;;;;;;;;;6224947;22;20016;-90
2022/09/09 10:55:09;;;;;;;0.08;0.08;;;;;;;;;;6225297;22;20307;-91
2022/09/09 10:58:01;;;;;;;0.10;0.10;;;;;;;;;;6225007;22;20442;-90
2022/09/09 11:00:47;;;;;;;0.10;0.10;;;;;;;;;;6222006;22;20023;-91
2022/09/09 11:03:29;;;;;;;0.10;0.10;;;;;;;;;;6224576;22;20145;-90
2022/09/09 11:06:02;;;;;;;0.10;0.10;;;;;;;;;;6224540;22;20012;-90
2022/09/09 11:08:30;;;;;;;0.10;0.10;;;;;;;;;;6224699;22;20463;-90
2022/09/09 11:11:14;;;;;;;0.10;0.10;;;;;;;;;;6223689;22;20089;-90
2022/09/09 11:13:48;;;;;;;0.10;0.10;;;;;;;;;;6224356;22;20011;-90
2022/09/09 11:16:20;;;;;;;0.10;0.10;;;;;;;;;;6224339;22;20019;-90
2022/09/09 11:18:47;;;;;;;0.05;0.05;;;;;;;;;;6223817;22;20051;-89
2022/09/09 11:21:24;;;;;;;0.20;0.20;;;;;;;;;;6224320;22;20070;-90
2022/09/09 11:23:54;;;;;;;0.03;0.03;;;;;;;;;;6224428;22;20024;-90
2022/09/09 11:26:27;;;;;;;0.10;0.10;;;;;;;;;;6224379;22;20058;-90
2022/09/09 11:28:58;;;;;;;0.10;0.10;;;;;;;;;;6224018;22;20055;-90
2022/09/09 11:31:44;;;;;;;0.00;0.00;;;;;;;;;;6224446;22;20019;-90
2022/09/09 11:34:24;;;;;;;0.10;0.10;;;;;;;;;;6224373;22;20349;-91
2022/09/09 11:36:56;;;;;;;0.20;0.20;;;;;;;;;;6224588;22;20016;-91
2022/09/09 11:39:31;;;;;;;0.00;0.00;;;;;;;;;;6223704;22;20023;-90
2022/09/09 11:42:12;;;;;;;0.10;0.10;;;;;;;;;;6224619;22;20051;-90
2022/09/09 11:44:39;;;;;;;0.00;0.00;;;;;;;;;;6224326;22;20070;-90
2022/09/09 11:47:17;;;;;;;0.10;0.10;;;;;;;;;;6224377;22;20016;-91
2022/09/09 11:49:43;;;;;;;0.13;0.13;;;;;;;;;;6223686;22;20045;-90
2022/09/09 11:52:26;;;;;;;0.10;0.10;;;;;;;;;;6223946;22;20016;-91
2022/09/09 11:54:53;;;;;;;0.00;0.00;;;;;;;;;;6224211;22;20065;-90
2022/09/09 11:57:33;;;;;;;0.10;0.10;;;;;;;;;;6224060;22;20020;-89
2022/09/09 11:59:59;;;;;;;0.10;0.10;;;;;;;;;;6223537;22;20012;-90
2022/09/09 12:02:27;;;;;;;0.10;0.10;;;;;;;;;;6224415;22;20019;-91
2022/09/09 12:04:53;;;;;;;0.08;0.08;;;;;;;;;;6224094;22;20051;-90
2022/09/09 12:07:20;;;;;;;0.10;0.10;;;;;;;;;;6223915;22;20025;-91
2022/09/09 12:09:51;;;;;;;0.10;0.10;;;;;;;;;;6223743;22;20464;-92
2022/09/09 12:12:31;;;;;;;0.10;0.10;;;;;;;;;;6223751;22;20019;-91
2022/09/09 12:15:00;;;;;;;0.10;0.10;;;;;;;;;;6223840;22;20016;-92
2022/09/09 12:17:28;;;;;;;0.10;0.10;;;;;;;;;;6224234;22;20016;-91
2022/09/09 12:20:10;;;;;;;0.00;0.00;;;;;;;;;;6223511;22;20012;-92
2022/09/09 12:22:56;;;;;;;0.10;0.10;;;;;;;;;;6224401;22;20098;-91
2022/09/09 12:25:25;;;;;;;0.10;0.10;;;;;;;;;;6208558;22;20090;-91
2022/09/09 12:27:57;;;;;;;0.15;0.15;;;;;;;;;;6223893;22;20101;-92
2022/09/09 12:30:26;;;;;;;0.00;0.00;;;;;;;;;;6223830;22;20099;-90
2022/09/09 12:33:01;;;;;;;0.20;0.20;;;;;;;;;;6224070;22;20012;-91
2022/09/09 12:35:29;;;;;;;0.10;0.10;;;;;;;;;;6223939;22;20023;-90
2022/09/09 12:38:00;;;;;;;0.03;0.03;;;;;;;;;;6224391;22;20596;-90
2022/09/09 12:40:26;;;;;;;0.08;0.08;;;;;;;;;;6223038;22;20020;-90
2022/09/09 12:42:55;;;;;;;0.03;0.03;;;;;;;;;;6224072;22;20014;-91
2022/09/09 12:45:25;;;;;;;0.10;0.10;;;;;;;;;;6224058;22;20018;-90
2022/09/09 12:47:54;;;;;;;0.10;0.10;;;;;;;;;;6224208;22;20012;-91
2022/09/09 12:50:21;;;;;;;0.10;0.10;;;;;;;;;;6223099;22;20437;-91
2022/09/09 12:52:48;;;;;;;0.03;0.03;;;;;;;;;;6224030;22;20016;-91
2022/09/09 12:55:24;;;;;;;0.10;0.10;;;;;;;;;;6223679;22;20019;-91
2022/09/09 12:57:50;;;;;;;0.10;0.10;;;;;;;;;;6224047;22;20016;-90
2022/09/09 13:00:20;;;;;;;0.10;0.10;;;;;;;;;;6223304;22;20019;-90
2022/09/09 13:02:50;;;;;;;0.00;0.00;;;;;;;;;;6249158;22;20012;-91
2022/09/09 13:05:19;;;;;;;0.00;0.00;;;;;;;;;;6223503;22;20022;-91
2022/09/09 13:07:45;;;;;;;0.15;0.15;;;;;;;;;;6224099;22;20375;-90
2022/09/09 13:10:12;;;;;;;0.10;0.10;;;;;;;;;;6224692;22;20016;-90
2022/09/09 13:12:38;;;;;;;0.10;0.10;;;;;;;;;;6225895;22;20015;-92
2022/09/09 13:15:04;;;;;;;0.10;0.10;;;;;;;;;;6225540;22;20012;-90
2022/09/09 13:17:31;;;;;;;0.03;0.03;;;;;;;;;;6225819;22;20011;-92
2022/09/09 13:19:57;;;;;;;0.13;0.13;;;;;;;;;;6224887;22;20042;-88
2022/09/09 13:22:29;;;;;;;0.05;0.05;;;;;;;;;;6225965;22;20022;-90
2022/09/09 13:25:04;;;;;;;0.10;0.10;;;;;;;;;;6225488;22;20103;-89
2022/09/09 13:27:33;;;;;;;0.10;0.10;;;;;;;;;;6225616;22;20095;-91
2022/09/09 13:29:59;;;;;;;0.10;0.10;;;;;;;;;;6224913;22;20098;-91
2022/09/09 13:32:30;;;;;;;0.00;0.00;;;;;;;;;;6225814;22;20012;-91
2022/09/09 13:35:01;;;;;;;0.10;0.10;;;;;;;;;;6225696;22;20515;-91
2022/09/09 13:37:34;;;;;;;0.05;0.05;;;;;;;;;;6225604;22;20019;-91
2022/09/09 13:40:00;;;;;;;0.10;0.10;;;;;;;;;;6225246;22;20012;-91
2022/09/09 13:42:27;;;;;;;0.10;0.10;;;;;;;;;;6225730;22;20019;-91
2022/09/09 13:44:55;;;;;;;0.10;0.10;;;;;;;;;;6225526;22;20102;-89
2022/09/09 13:47:23;;;;;;;0.10;0.10;;;;;;;;;;6225456;22;20022;-90
2022/09/09 13:49:49;;;;;;;0.10;0.10;;;;;;;;;;6225155;22;20023;-90
2022/09/09 13:52:16;;;;;;;0.00;0.00;;;;;;;;;;6225253;22;20445;-89
2022/09/09 13:54:43;;;;;;;0.10;0.10;;;;;;;;;;6225666;22;20050;-90
2022/09/09 13:57:15;;;;;;;0.10;0.10;;;;;;;;;;6225195;22;20016;-89
2022/09/09 13:59:41;;;;;;;0.10;0.10;;;;;;;;;;6224587;22;20034;-90
2022/09/09 14:02:07;;;;;;;0.00;0.00;;;;;;;;;;6225302;22;20031;-90
2022/09/09 14:04:34;;;;;;;0.10;0.10;;;;;;;;;;6225064;22;20015;-90
2022/09/09 14:07:01;;;;;;;0.10;0.10;;;;;;;;;;6225144;22;20019;-90
2022/09/09 14:09:27;;;;;;;0.10;0.10;;;;;;;;;;6224874;22;20019;-89
2022/09/09 14:11:54;;;;;;;0.10;0.10;;;;;;;;;;6224582;22;20022;-90
2022/09/09 14:14:20;;;;;;;0.00;0.00;;;;;;;;;;6225106;22;20491;-90
2022/09/09 14:16:47;;;;;;;0.10;0.10;;;;;;;;;;6225234;22;20016;-89
2022/09/09 14:19:13;;;;;;;0.10;0.10;;;;;;;;;;6224199;22;20015;-91
2022/09/09 14:21:39;;;;;;;0.10;0.10;;;;;;;;;;6224443;22;20019;-90
2022/09/09 14:24:05;;;;;;;0.10;0.10;;;;;;;;;;6224982;22;20318;-91
2022/09/09 14:26:32;;;;;;;0.10;0.10;;;;;;;;;;6224653;22;20049;-89
2022/09/09 14:28:58;;;;;;;0.00;0.00;;;;;;;;;;6224297;22;20454;-90
2022/09/09 14:31:25;;;;;;;0.10;0.10;;;;;;;;;;6225022;22;20016;-91
2022/09/09 14:33:51;;;;;;;0.10;0.10;;;;;;;;;;6224912;22;20016;-88
2022/09/09 14:36:17;;;;;;;0.10;0.10;;;;;;;;;;6224994;22;20019;-90
2022/09/09 14:38:43;;;;;;;0.10;0.10;;;;;;;;;;6249959;22;20051;-90
2022/09/09 14:41:11;;;;;;;0.10;0.10;;;;;;;;;;6249662;22;20026;-91
2022/09/09 14:43:40;;;;;;;0.10;0.10;;;;;;;;;;6224797;22;20057;-90
2022/09/09 14:46:10;;;;;;;0.03;0.03;;;;;;;;;;6224554;22;20019;-91
2022/09/09 14:48:37;;;;;;;0.10;0.10;;;;;;;;;;6224820;22;20023;-90
2022/09/09 14:51:07;;;;;;;0.10;0.10;;;;;;;;;;6223710;22;20440;-90
2022/09/09 14:53:33;;;;;;;0.10;0.10;;;;;;;;;;6224490;22;20016;-90
2022/09/09 14:56:13;;;;;;;0.10;0.10;;;;;;;;;;6224872;22;20019;-91
2022/09/09 14:58:40;;;;;;;0.10;0.10;;;;;;;;;;6224587;22;20071;-91